createdAt,value
2022-10-04T00:01:48.711Z,57.70
2022-10-04T00:04:22.938Z,57.57
2022-10-04T00:07:00.550Z,57.22
2022-10-04T00:09:35.383Z,57.86
2022-10-04T00:12:05.668Z,57.28
2022-10-04T00:14:38.371Z,58.13
2022-10-04T00:17:13.216Z,57.75
2022-10-04T00:19:45.166Z,57.39
2022-10-04T00:22:23.887Z,57.95
2022-10-04T00:25:17.471Z,58.58
2022-10-04T00:28:26.133Z,58.63
2022-10-04T00:31:19.202Z,58.41
2022-10-04T00:33:50.146Z,58.89
2022-10-04T00:36:37.488Z,58.83
2022-10-04T00:39:25.093Z,59.43
2022-10-04T00:42:02.667Z,59.38
2022-10-04T00:44:38.994Z,58.74
2022-10-04T00:47:20.370Z,59.03
2022-10-04T00:49:54.433Z,58.34
2022-10-04T00:52:27.315Z,58.01
2022-10-04T00:54:59.687Z,58.98
2022-10-04T00:57:32.717Z,58.22
2022-10-04T01:00:05.357Z,58.01
2022-10-04T01:02:38.617Z,58.37
2022-10-04T01:05:10.744Z,58.18
2022-10-04T01:07:43.533Z,57.94
2022-10-04T01:10:19.578Z,57.81
2022-10-04T01:12:53.711Z,58.05
2022-10-04T01:15:30.326Z,58.29
2022-10-04T01:18:14.439Z,58.23
2022-10-04T01:20:53.894Z,58.44
2022-10-04T01:23:35.573Z,58.85
2022-10-04T01:26:06.405Z,59.18
2022-10-04T01:28:35.772Z,57.88
2022-10-04T01:31:04.076Z,57.71
2022-10-04T01:33:32.340Z,57.57
2022-10-04T01:36:00.857Z,57.46
2022-10-04T01:38:29.029Z,57.32
2022-10-04T01:41:01.050Z,57.40
2022-10-04T01:43:36.264Z,57.51
2022-10-04T01:46:09.747Z,57.63
2022-10-04T01:48:40.544Z,57.72
2022-10-04T01:51:14.313Z,57.64
2022-10-04T01:53:48.681Z,57.84
2022-10-04T01:56:22.576Z,57.61
2022-10-04T01:58:53.734Z,57.92
2022-10-04T02:01:31.217Z,57.77
2022-10-04T02:04:03.691Z,58.12
2022-10-04T02:06:39.369Z,58.06
2022-10-04T02:09:11.970Z,58.02
2022-10-04T02:11:42.784Z,57.94
2022-10-04T02:14:16.416Z,57.93
2022-10-04T02:16:47.000Z,57.94
2022-10-04T02:19:17.322Z,57.73
2022-10-04T02:21:46.338Z,57.79
2022-10-04T02:24:15.125Z,57.81
2022-10-04T02:26:50.474Z,57.91
2022-10-04T02:29:19.566Z,58.37
2022-10-04T02:32:07.546Z,57.95
2022-10-04T02:34:36.233Z,58.06
2022-10-04T02:37:05.398Z,57.96
2022-10-04T02:39:38.220Z,57.92
2022-10-04T02:42:15.284Z,57.97
2022-10-04T02:44:47.060Z,58.42
2022-10-04T02:47:19.502Z,58.14
2022-10-04T02:49:50.761Z,58.22
2022-10-04T02:52:24.414Z,58.23
2022-10-04T02:54:58.083Z,58.31
2022-10-04T02:57:28.626Z,58.38
2022-10-04T03:00:11.614Z,58.25
2022-10-04T03:02:40.756Z,58.67
2022-10-04T03:05:11.745Z,58.24
2022-10-04T03:07:40.830Z,58.43
2022-10-04T03:10:12.453Z,58.47
2022-10-04T03:12:42.592Z,58.47
2022-10-04T03:15:13.122Z,58.69
2022-10-04T03:17:42.818Z,58.54
2022-10-04T03:20:14.710Z,58.66
2022-10-04T03:22:47.085Z,58.63
2022-10-04T03:25:19.809Z,58.84
2022-10-04T03:27:51.815Z,59.22
2022-10-04T03:30:20.696Z,59.04
2022-10-04T03:32:50.381Z,58.91
2022-10-04T03:35:28.595Z,59.00
2022-10-04T03:37:59.009Z,59.72
2022-10-04T03:40:31.383Z,59.26
2022-10-04T03:43:03.561Z,59.26
2022-10-04T03:45:34.384Z,59.27
2022-10-04T03:48:06.561Z,59.12
2022-10-04T03:50:39.291Z,59.22
2022-10-04T03:53:13.094Z,58.96
2022-10-04T03:55:45.174Z,59.01
2022-10-04T03:58:18.948Z,58.96
2022-10-04T04:01:01.717Z,58.99
2022-10-04T04:03:35.831Z,59.24
2022-10-04T04:06:10.482Z,58.99
2022-10-04T04:08:43.274Z,59.16
2022-10-04T04:11:19.876Z,59.36
2022-10-04T04:13:56.884Z,59.59
2022-10-04T04:16:26.385Z,59.59
2022-10-04T04:18:58.713Z,59.36
2022-10-04T04:21:28.290Z,59.14
2022-10-04T04:24:00.704Z,59.25
2022-10-04T04:26:36.860Z,59.46
2022-10-04T04:29:15.584Z,59.83
2022-10-04T04:31:47.193Z,59.63
2022-10-04T04:34:19.823Z,59.27
2022-10-04T04:36:47.925Z,59.41
2022-10-04T04:39:36.332Z,59.51
2022-10-04T04:42:08.417Z,59.43
2022-10-04T04:44:39.916Z,59.40
2022-10-04T04:47:19.319Z,59.24
2022-10-04T04:49:47.736Z,59.46
2022-10-04T04:52:20.896Z,59.12
2022-10-04T04:54:50.024Z,59.00
2022-10-04T04:57:18.557Z,59.27
2022-10-04T04:59:51.642Z,59.35
2022-10-04T05:02:35.386Z,59.39
2022-10-04T05:05:18.206Z,59.26
2022-10-04T05:07:46.932Z,59.76
2022-10-04T05:10:28.882Z,59.50
2022-10-04T05:12:59.507Z,59.44
2022-10-04T05:15:34.408Z,59.46
2022-10-04T05:18:03.125Z,59.89
2022-10-04T05:20:34.322Z,59.60
2022-10-04T05:23:02.741Z,59.17
2022-10-04T05:25:34.295Z,59.18
2022-10-04T05:28:03.297Z,59.85
2022-10-04T05:30:48.737Z,59.81
2022-10-04T05:33:24.520Z,59.76
2022-10-04T05:36:09.622Z,59.06
2022-10-04T05:38:44.406Z,59.00
2022-10-04T05:41:21.754Z,59.37
2022-10-04T05:43:51.743Z,59.98
2022-10-04T05:46:26.266Z,59.57
2022-10-04T05:48:57.024Z,59.81
2022-10-04T05:51:28.771Z,59.73
2022-10-04T05:54:00.782Z,60.10
2022-10-04T05:57:12.933Z,59.84
2022-10-04T05:59:53.291Z,60.50
2022-10-04T06:02:37.038Z,59.64
2022-10-04T06:05:12.500Z,60.69
2022-10-04T06:07:44.186Z,60.08
2022-10-04T06:10:50.481Z,59.68
2022-10-04T06:13:32.469Z,59.61
2022-10-04T06:16:16.139Z,59.95
2022-10-04T06:19:15.008Z,59.99
2022-10-04T06:22:02.385Z,60.43
2022-10-04T06:24:34.144Z,59.94
2022-10-04T06:27:09.845Z,59.96
2022-10-04T06:29:42.913Z,59.84
2022-10-04T06:32:50.638Z,59.69
2022-10-04T06:35:36.245Z,60.80
2022-10-04T06:38:23.573Z,60.66
2022-10-04T06:41:24.281Z,59.88
2022-10-04T06:44:11.874Z,60.20
2022-10-04T06:46:48.076Z,59.73
2022-10-04T06:49:36.201Z,59.43
2022-10-04T06:52:47.365Z,58.85
2022-10-04T06:55:39.458Z,59.37
2022-10-04T06:58:25.654Z,59.55
2022-10-04T07:01:00.424Z,59.38
2022-10-04T07:03:36.715Z,58.69
2022-10-04T07:06:06.696Z,59.42
2022-10-04T07:08:40.523Z,58.77
2022-10-04T07:11:16.469Z,58.26
2022-10-04T07:13:56.490Z,58.80
2022-10-04T07:16:35.434Z,59.05
2022-10-04T07:19:24.940Z,58.89
2022-10-04T07:22:00.254Z,58.37
2022-10-04T07:24:40.634Z,59.12
2022-10-04T07:27:14.826Z,58.44
2022-10-04T07:29:46.676Z,58.53
2022-10-04T07:32:22.352Z,58.21
2022-10-04T07:34:55.531Z,57.87
2022-10-04T07:37:27.742Z,58.20
2022-10-04T07:40:02.730Z,58.66
2022-10-04T07:42:39.419Z,58.23
2022-10-04T07:45:17.616Z,58.45
2022-10-04T07:47:46.096Z,58.39
2022-10-04T07:50:25.528Z,58.06
2022-10-04T07:53:05.957Z,57.14
2022-10-04T07:55:46.343Z,57.77
2022-10-04T07:58:25.105Z,57.90
2022-10-04T08:01:00.406Z,57.91
2022-10-04T08:03:49.164Z,57.60
2022-10-04T08:06:23.074Z,55.94
2022-10-04T08:09:24.194Z,57.46
2022-10-04T08:12:03.129Z,56.04
2022-10-04T08:14:50.547Z,56.31
2022-10-04T08:17:28.273Z,56.00
2022-10-04T08:20:05.725Z,56.79
2022-10-04T08:22:43.804Z,56.92
2022-10-04T08:25:22.368Z,56.96
2022-10-04T08:28:32.430Z,56.30
2022-10-04T08:31:13.125Z,56.31
2022-10-04T08:33:56.076Z,55.86
2022-10-04T08:36:39.009Z,56.08
2022-10-04T08:39:20.758Z,55.80
2022-10-04T08:42:24.173Z,55.52
2022-10-04T08:45:38.820Z,55.27
2022-10-04T08:48:43.206Z,53.96
2022-10-04T08:51:44.644Z,55.13
2022-10-04T08:54:40.867Z,54.67
2022-10-04T08:57:27.139Z,53.97
2022-10-04T09:00:15.213Z,55.41
2022-10-04T09:03:26.752Z,53.88
2022-10-04T09:05:58.313Z,53.98
2022-10-04T09:09:01.267Z,55.20
2022-10-04T09:12:00.975Z,53.72
2022-10-04T09:14:56.174Z,54.99
2022-10-04T09:17:39.486Z,54.48
2022-10-04T09:20:39.471Z,54.59
2022-10-04T09:23:23.089Z,54.34
2022-10-04T09:26:08.952Z,53.91
2022-10-04T09:29:29.935Z,54.32
2022-10-04T09:32:20.428Z,52.28
2022-10-04T09:35:10.124Z,52.99
2022-10-04T09:37:58.821Z,53.13
2022-10-04T09:41:03.820Z,53.20
2022-10-04T09:44:04.429Z,51.20
2022-10-04T09:46:56.689Z,52.45
2022-10-04T09:49:57.380Z,51.70
2022-10-04T09:52:40.318Z,52.32
2022-10-04T09:55:23.365Z,52.02
2022-10-04T09:58:25.233Z,52.87
2022-10-04T10:01:00.857Z,50.94
2022-10-04T10:03:58.875Z,53.00
2022-10-04T10:06:42.620Z,50.95
2022-10-04T10:09:44.533Z,51.17
2022-10-04T10:12:58.889Z,50.92
2022-10-04T10:15:36.516Z,50.61
2022-10-04T10:18:15.322Z,51.80
2022-10-04T10:21:04.659Z,50.19
2022-10-04T10:23:54.426Z,50.23
2022-10-04T10:26:39.342Z,49.91
2022-10-04T10:29:28.260Z,50.60
2022-10-04T10:32:17.943Z,49.61
2022-10-04T10:35:14.362Z,50.67
2022-10-04T10:38:03.611Z,49.66
2022-10-04T10:40:50.619Z,50.53
2022-10-04T10:43:41.605Z,50.10
2022-10-04T10:46:49.465Z,49.34
2022-10-04T10:49:34.053Z,49.12
2022-10-04T10:52:39.483Z,48.26
2022-10-04T10:55:30.792Z,46.63
2022-10-04T10:58:15.974Z,49.53
2022-10-04T11:01:00.931Z,49.12
2022-10-04T11:03:52.014Z,47.10
2022-10-04T11:07:14.054Z,48.46
2022-10-04T11:10:31.038Z,46.46
2022-10-04T11:13:36.826Z,47.75
2022-10-04T11:16:26.091Z,47.32
2022-10-04T11:19:29.294Z,45.04
2022-10-04T11:22:44.743Z,45.31
2022-10-04T11:25:37.184Z,44.37
2022-10-04T11:28:12.519Z,47.07
2022-10-04T11:31:32.653Z,49.14
2022-10-04T11:34:19.497Z,46.04
2022-10-04T11:37:04.861Z,46.37
2022-10-04T11:39:49.991Z,47.14
2022-10-04T11:42:30.016Z,44.60
2022-10-04T11:45:22.507Z,47.48
2022-10-04T11:48:02.465Z,47.12
2022-10-04T11:50:51.386Z,47.07
2022-10-04T11:54:04.533Z,46.50
2022-10-04T11:57:04.950Z,46.23
2022-10-04T11:59:46.725Z,45.74
2022-10-04T12:02:57.434Z,46.48
2022-10-04T12:05:43.264Z,45.30
2022-10-04T12:08:20.408Z,46.02
2022-10-04T12:11:12.892Z,45.26
2022-10-04T12:13:57.419Z,44.37
2022-10-04T12:16:49.222Z,46.30
2022-10-04T12:19:40.282Z,43.24
2022-10-04T12:22:27.054Z,43.89
2022-10-04T12:25:37.599Z,44.49
2022-10-04T12:28:21.479Z,44.94
2022-10-04T12:31:20.116Z,44.89
2022-10-04T12:33:57.318Z,42.65
2022-10-04T12:36:35.363Z,45.59
2022-10-04T12:39:28.454Z,45.97
2022-10-04T12:42:09.004Z,44.04
2022-10-04T12:44:50.283Z,45.34
2022-10-04T12:47:51.825Z,44.60
2022-10-04T12:50:30.240Z,44.21
2022-10-04T12:53:11.034Z,43.48
2022-10-04T12:55:53.569Z,45.57
2022-10-04T12:58:30.122Z,45.10
2022-10-04T13:01:12.125Z,43.38
2022-10-04T13:04:07.610Z,44.11
2022-10-04T13:06:44.548Z,41.46
2022-10-04T13:09:20.212Z,44.09
2022-10-04T13:12:18.065Z,42.69
2022-10-04T13:14:58.364Z,42.91
2022-10-04T13:17:41.038Z,45.20
2022-10-04T13:20:38.598Z,43.71
2022-10-04T13:23:13.022Z,42.36
2022-10-04T13:26:03.329Z,45.49
2022-10-04T13:28:41.561Z,44.17
2022-10-04T13:31:16.755Z,45.59
2022-10-04T13:33:52.278Z,44.74
2022-10-04T13:36:29.354Z,44.87
2022-10-04T13:39:25.166Z,43.94
2022-10-04T13:42:18.350Z,42.86
2022-10-04T13:45:05.113Z,42.60
2022-10-04T13:47:49.362Z,42.57
2022-10-04T13:50:36.193Z,43.96
2022-10-04T13:53:38.981Z,42.69
2022-10-04T13:56:40.117Z,42.77
2022-10-04T13:59:17.526Z,42.91
2022-10-04T14:02:14.496Z,44.27
2022-10-04T14:05:17.254Z,42.13
2022-10-04T14:07:59.269Z,42.41
2022-10-04T14:10:47.317Z,43.29
2022-10-04T14:13:55.689Z,42.93
2022-10-04T14:16:46.669Z,42.33
2022-10-04T14:19:40.642Z,43.01
2022-10-04T14:22:45.469Z,42.29
2022-10-04T14:25:43.693Z,42.52
2022-10-04T14:28:26.230Z,42.61
2022-10-04T14:31:13.326Z,43.79
2022-10-04T14:34:03.669Z,42.65
2022-10-04T14:37:12.329Z,42.58
2022-10-04T14:40:08.673Z,41.94
2022-10-04T14:42:50.233Z,42.70
2022-10-04T14:45:37.834Z,43.09
2022-10-04T14:48:24.858Z,42.72
2022-10-04T14:51:15.863Z,43.08
2022-10-04T14:53:55.978Z,43.30
2022-10-04T14:56:43.745Z,43.90
2022-10-04T14:59:30.646Z,43.17
2022-10-04T15:02:37.005Z,43.97
2022-10-04T15:05:31.605Z,43.73
2022-10-04T15:08:28.998Z,43.70
2022-10-04T15:11:00.042Z,43.88
2022-10-04T15:13:34.740Z,45.55
2022-10-04T15:16:17.321Z,45.10
2022-10-04T15:18:53.200Z,44.43
2022-10-04T15:21:34.651Z,44.99
2022-10-04T15:24:24.108Z,44.51
2022-10-04T15:27:08.798Z,44.78
2022-10-04T15:29:46.864Z,45.55
2022-10-04T15:32:28.991Z,46.09
2022-10-04T15:35:14.739Z,45.56
2022-10-04T15:37:47.551Z,45.85
2022-10-04T15:40:42.819Z,46.26
2022-10-04T15:43:28.093Z,45.33
2022-10-04T15:46:24.996Z,45.64
2022-10-04T15:49:36.791Z,45.97
2022-10-04T15:52:29.038Z,45.76
2022-10-04T15:55:13.106Z,46.38
2022-10-04T15:58:05.604Z,46.38
2022-10-04T16:00:49.045Z,46.09
2022-10-04T16:03:29.203Z,46.70
2022-10-04T16:06:02.802Z,46.58
2022-10-04T16:08:56.968Z,46.93
2022-10-04T16:11:34.716Z,46.63
2022-10-04T16:14:20.333Z,46.99
2022-10-04T16:17:21.852Z,47.18
2022-10-04T16:20:05.946Z,47.21
2022-10-04T16:22:35.733Z,47.46
2022-10-04T16:25:37.283Z,47.56
2022-10-04T16:28:12.943Z,47.63
2022-10-04T16:30:48.006Z,47.67
2022-10-04T16:33:31.190Z,47.83
2022-10-04T16:36:10.024Z,48.14
2022-10-04T16:39:07.587Z,47.99
2022-10-04T16:41:44.370Z,48.01
2022-10-04T16:44:35.129Z,48.11
2022-10-04T16:47:18.954Z,48.26
2022-10-04T16:49:53.673Z,48.30
2022-10-04T16:53:04.386Z,48.37
2022-10-04T16:55:53.191Z,49.04
2022-10-04T16:58:52.484Z,48.80
2022-10-04T17:01:44.302Z,49.01
2022-10-04T17:04:40.100Z,49.26
2022-10-04T17:07:19.743Z,49.10
2022-10-04T17:09:50.377Z,49.29
2022-10-04T17:12:20.823Z,48.95
2022-10-04T17:15:11.053Z,48.93
2022-10-04T17:17:47.104Z,49.47
2022-10-04T17:20:29.639Z,49.53
2022-10-04T17:23:18.349Z,49.56
2022-10-04T17:25:57.137Z,49.45
2022-10-04T17:28:30.574Z,49.60
2022-10-04T17:31:12.621Z,49.70
2022-10-04T17:33:53.674Z,50.42
2022-10-04T17:36:39.164Z,50.13
2022-10-04T17:39:27.062Z,50.60
2022-10-04T17:42:10.360Z,50.64
2022-10-04T17:45:03.711Z,50.86
2022-10-04T17:47:57.820Z,50.82
2022-10-04T17:50:47.588Z,50.69
2022-10-04T17:53:39.239Z,50.33
2022-10-04T17:56:11.580Z,50.89
2022-10-04T17:58:45.613Z,50.40
2022-10-04T18:01:19.480Z,50.60
2022-10-04T18:03:54.766Z,50.86
2022-10-04T18:06:33.452Z,50.93
2022-10-04T18:09:05.768Z,51.22
2022-10-04T18:11:47.074Z,50.75
2022-10-04T18:14:43.117Z,51.18
2022-10-04T18:17:22.710Z,51.07
2022-10-04T18:20:03.049Z,51.01
2022-10-04T18:22:46.891Z,51.51
2022-10-04T18:25:17.673Z,51.71
2022-10-04T18:27:52.855Z,50.98
2022-10-04T18:30:22.588Z,51.54
2022-10-04T18:32:52.708Z,50.95
2022-10-04T18:35:26.618Z,50.93
2022-10-04T18:37:57.261Z,51.00
2022-10-04T18:40:28.511Z,50.86
2022-10-04T18:43:00.457Z,50.86
2022-10-04T18:45:30.077Z,50.87
2022-10-04T18:48:01.274Z,50.87
2022-10-04T18:50:43.547Z,50.92
2022-10-04T18:53:33.919Z,51.43
2022-10-04T18:56:04.446Z,51.49
2022-10-04T18:59:04.571Z,51.21
2022-10-04T19:02:03.946Z,51.87
2022-10-04T19:04:42.257Z,51.66
2022-10-04T19:07:14.368Z,51.45
2022-10-04T19:10:04.494Z,51.28
2022-10-04T19:12:42.512Z,52.09
2022-10-04T19:15:23.470Z,51.61
2022-10-04T19:18:00.960Z,51.77
2022-10-04T19:20:37.747Z,51.87
2022-10-04T19:23:15.802Z,51.72
2022-10-04T19:26:10.018Z,52.02
2022-10-04T19:28:38.466Z,51.66
2022-10-04T19:31:17.773Z,51.69
2022-10-04T19:33:51.266Z,51.82
2022-10-04T19:36:36.504Z,51.76
2022-10-04T19:39:21.678Z,52.11
2022-10-04T19:41:57.428Z,52.29
2022-10-04T19:45:02.307Z,52.01
2022-10-04T19:47:48.909Z,53.06
2022-10-04T19:50:21.510Z,53.08
2022-10-04T19:52:54.357Z,52.45
2022-10-04T19:55:30.292Z,52.17
2022-10-04T19:58:09.874Z,52.24
2022-10-04T20:00:38.471Z,52.50
2022-10-04T20:03:11.508Z,52.07
2022-10-04T20:05:44.767Z,52.54
2022-10-04T20:08:14.558Z,52.48
2022-10-04T20:10:45.224Z,52.22
2022-10-04T20:13:23.337Z,52.39
2022-10-04T20:15:53.894Z,52.79
2022-10-04T20:19:09.654Z,52.47
2022-10-04T20:21:38.025Z,53.06
2022-10-04T20:24:17.696Z,52.40
2022-10-04T20:26:55.016Z,53.12
2022-10-04T20:30:05.107Z,52.73
2022-10-04T20:32:56.492Z,53.76
2022-10-04T20:36:06.988Z,53.79
2022-10-04T20:38:53.680Z,54.02
2022-10-04T20:42:02.543Z,53.81
2022-10-04T20:44:44.482Z,53.85
2022-10-04T20:47:23.987Z,54.15
2022-10-04T20:49:56.857Z,53.57
2022-10-04T20:52:28.434Z,53.10
2022-10-04T20:54:58.449Z,53.40
2022-10-04T20:57:26.899Z,53.31
2022-10-04T20:59:57.651Z,53.29
2022-10-04T21:02:28.509Z,53.74
2022-10-04T21:05:13.358Z,53.66
2022-10-04T21:07:41.635Z,54.91
2022-10-04T21:10:18.841Z,54.07
2022-10-04T21:12:49.015Z,54.72
2022-10-04T21:15:23.189Z,54.08
2022-10-04T21:18:03.735Z,54.67
2022-10-04T21:20:46.560Z,55.56
2022-10-04T21:23:21.382Z,55.56
2022-10-04T21:25:50.160Z,55.05
2022-10-04T21:28:39.552Z,54.55
2022-10-04T21:31:09.238Z,55.61
2022-10-04T21:33:38.142Z,54.87
2022-10-04T21:36:06.935Z,54.33
2022-10-04T21:38:35.615Z,54.04
2022-10-04T21:41:04.685Z,54.46
2022-10-04T21:43:33.038Z,55.07
2022-10-04T21:46:01.994Z,54.96
2022-10-04T21:48:31.519Z,54.79
2022-10-04T21:50:59.887Z,54.61
2022-10-04T21:53:28.137Z,54.79
2022-10-04T21:55:56.157Z,54.78
2022-10-04T21:58:26.288Z,55.05
2022-10-04T22:00:54.609Z,54.35
2022-10-04T22:03:23.149Z,54.52
2022-10-04T22:05:52.516Z,54.75
2022-10-04T22:08:20.528Z,55.45
2022-10-04T22:10:48.836Z,54.81
2022-10-04T22:13:16.989Z,54.97
2022-10-04T22:15:45.082Z,55.23
2022-10-04T22:18:13.663Z,55.60
2022-10-04T22:20:41.742Z,54.97
2022-10-04T22:23:19.449Z,55.22
2022-10-04T22:25:48.009Z,56.16
2022-10-04T22:28:21.970Z,55.50
2022-10-04T22:30:52.162Z,55.38
2022-10-04T22:33:32.394Z,56.05
2022-10-04T22:36:14.638Z,55.94
2022-10-04T22:38:49.069Z,55.91
2022-10-04T22:41:19.444Z,55.23
2022-10-04T22:43:48.050Z,54.84
2022-10-04T22:46:19.269Z,54.90
2022-10-04T22:48:50.030Z,55.29
2022-10-04T22:51:18.234Z,55.21
2022-10-04T22:53:48.953Z,55.32
2022-10-04T22:56:17.486Z,55.00
2022-10-04T22:58:45.548Z,55.05
2022-10-04T23:01:16.190Z,54.94
2022-10-04T23:03:47.624Z,55.27
2022-10-04T23:06:16.314Z,55.11
2022-10-04T23:08:45.687Z,54.86
2022-10-04T23:11:15.214Z,54.84
2022-10-04T23:13:43.196Z,55.08
2022-10-04T23:16:15.852Z,54.94
2022-10-04T23:18:43.986Z,55.20
2022-10-04T23:21:23.085Z,54.97
2022-10-04T23:23:52.894Z,55.95
2022-10-04T23:26:24.968Z,55.15
2022-10-04T23:28:53.306Z,55.18
2022-10-04T23:31:24.797Z,54.93
2022-10-04T23:33:55.731Z,55.07
2022-10-04T23:36:24.450Z,54.92
2022-10-04T23:38:57.204Z,54.85
2022-10-04T23:41:27.342Z,55.08
2022-10-04T23:43:55.484Z,54.85
2022-10-04T23:46:24.618Z,54.84
2022-10-04T23:48:52.898Z,54.91
2022-10-04T23:51:21.169Z,54.73
2022-10-04T23:53:50.776Z,54.81
2022-10-04T23:56:22.151Z,55.06
2022-10-04T23:58:53.811Z,55.32
